Lexington, KY (40546)

1:16 PM EDT on March 31, 2015 (GMT -0400)
Sayre School | | Change Station
CLOSE
Current Station
Personal Weather Station
Location: Lexington, KY
Elevation: 971 ft
Nearby Weather Stations
Active Advisory: Special Statement

Elev 971 ft 38.05 °N, 84.49 °W | Updated 6 minutes ago

Clear
Clear
68.6 °F
Feels Like 68.6 °F
N
8.0
Wind Variable Wind from North
Gusts 8.0 mph

Today
High -- | Low -- °F
--% Chance of Precip.
Yesterday
High -- | Low -- °F
Precip. -- in
7:25 AM 7:59 PM
Waxing Gibbous, 88% visible
Pressure 29.83 in
Visibility 10.0 miles
Clouds Clear
Dew Point 38 °F
Humidity 32%
Rainfall 0.00 in
Snow Depth Not available.
UV 7.0 out of 12
Pollen 10.50 out of 12
Air Quality Not available.
Flu Activity Not available.
METAR KLEX 311654Z 26014G24KT 10SM CLR 21/04 A2984 RMK AO2 PK WND 28027/1601 SLP102 T02060044

More Conditions Fewer Conditions

Pressure 29.83 in
Visibility 10.0 miles
Clouds Clear
Dew Point 38 °F
Humidity 32%
Rainfall 0.00 in
Snow Depth Not available.
UV 7.0 out of 12
Pollen 10.50 out of 12
Air Quality Not available.
Flu Activity Not available.
METAR KLEX 311654Z 26014G24KT 10SM CLR 21/04 A2984 RMK AO2 PK WND 28027/1601 SLP102 T02060044

More Conditions Fewer Conditions

10-Day Weather Forecast

Almanac

Astronomy

Mar. 31, 2015 Rise Set
Actual Time
Civil Twilight
Nautical Twilight
Astronomical Twilight
Moon
Length of Visible Light
Length of Day
Tomorrow will be .
, % of the Moon is Illuminated

Today's Extremes

State Highs State Lows

Community

WunderPhotos

Upload Photos

1,809,787 photos uploaded!

WunderBlogs® & News

Nearby

Air Quality

  Air Quality AQ Index Pollutant
Not available.

Snow Depth

Station Depth Elevation

Earthquake Activity

City Distance Mag. Time & Date
Minimum magnitude displayed is 2.5.

Coastal Water Temperatures

Place Temperature

Stations

Nearby Weather Stations

Station Location Temp. Windchill Dew Point Humidity Wind Precip. Elev Updated Type
                   
Special Statement
Statement as of 11:42 AM CDT on March 31, 2015

... Gusty winds and low humidity this afternoon...

A dry cold front crossing the area is producing gusty west winds
up to 25 mph. In addition to the gusty winds... relative humidity
values across the area are dropping to around 30 percent. This is
creating dangerous fire weather conditions.

Open burning should be avoided this afternoon.


13